createdAt,value
2022-09-23T00:01:05.161Z,16.89
2022-09-23T00:03:32.400Z,16.85
2022-09-23T00:06:01.175Z,16.83
2022-09-23T00:08:28.897Z,16.83
2022-09-23T00:10:56.032Z,16.84
2022-09-23T00:13:25.501Z,16.81
2022-09-23T00:15:52.309Z,16.78
2022-09-23T00:18:19.307Z,16.79
2022-09-23T00:20:45.763Z,16.82
2022-09-23T00:23:12.612Z,16.74
2022-09-23T00:25:39.068Z,16.68
2022-09-23T00:28:05.504Z,16.70
2022-09-23T00:30:32.001Z,16.73
2022-09-23T00:32:58.458Z,16.67
2022-09-23T00:35:24.912Z,16.67
2022-09-23T00:37:51.491Z,16.71
2022-09-23T00:40:18.080Z,16.61
2022-09-23T00:42:49.600Z,16.60
2022-09-23T00:45:19.412Z,16.52
2022-09-23T00:48:01.736Z,16.42
2022-09-23T00:50:34.643Z,16.56
2022-09-23T00:53:06.529Z,16.56
2022-09-23T00:55:34.399Z,16.58
2022-09-23T00:58:04.592Z,16.55
2022-09-23T01:00:31.204Z,16.51
2022-09-23T01:02:57.653Z,16.54
2022-09-23T01:05:24.123Z,16.54
2022-09-23T01:07:50.973Z,16.48
2022-09-23T01:10:17.963Z,16.46
2022-09-23T01:13:16.175Z,16.49
2022-09-23T01:15:57.590Z,16.42
2022-09-23T01:19:06.426Z,16.34
2022-09-23T01:21:44.204Z,16.33
2022-09-23T01:24:37.578Z,16.33
2022-09-23T01:27:22.940Z,16.35
2022-09-23T01:30:31.262Z,16.31
2022-09-23T01:33:12.838Z,16.28
2022-09-23T01:35:57.649Z,16.27
2022-09-23T01:38:34.332Z,16.29
2022-09-23T01:41:35.340Z,16.34
2022-09-23T01:44:29.665Z,16.27
2022-09-23T01:47:08.112Z,16.32
2022-09-23T01:50:03.204Z,16.29
2022-09-23T01:52:44.471Z,16.35
2022-09-23T01:55:18.348Z,16.29
2022-09-23T01:57:53.077Z,16.31
2022-09-23T02:00:23.901Z,16.29
2022-09-23T02:03:07.119Z,16.17
2022-09-23T02:05:38.908Z,16.24
2022-09-23T02:09:00.914Z,16.23
2022-09-23T02:11:27.960Z,16.25
2022-09-23T02:14:22.295Z,16.25
2022-09-23T02:16:53.887Z,16.20
2022-09-23T02:19:44.392Z,16.26
2022-09-23T02:22:28.095Z,16.28
2022-09-23T02:24:57.592Z,16.24
2022-09-23T02:27:29.703Z,16.30
2022-09-23T02:30:09.654Z,16.32
2022-09-23T02:32:52.962Z,16.10
2022-09-23T02:35:34.778Z,16.15
2022-09-23T02:38:43.552Z,16.19
2022-09-23T02:41:25.391Z,16.21
2022-09-23T02:44:08.699Z,16.23
2022-09-23T02:46:36.755Z,16.11
2022-09-23T02:49:11.891Z,16.14
2022-09-23T02:51:41.616Z,16.20
2022-09-23T02:54:13.161Z,16.12
2022-09-23T02:56:40.570Z,16.11
2022-09-23T02:59:09.730Z,16.13
2022-09-23T03:01:57.036Z,16.04
2022-09-23T03:04:35.646Z,16.05
2022-09-23T03:07:23.531Z,15.95
2022-09-23T03:10:04.212Z,15.92
2022-09-23T03:12:55.953Z,15.96
2022-09-23T03:15:30.718Z,16.01
2022-09-23T03:18:17.307Z,16.04
2022-09-23T03:20:57.996Z,16.05
2022-09-23T03:23:33.021Z,16.00
2022-09-23T03:26:07.650Z,15.97
2022-09-23T03:28:42.184Z,15.91
2022-09-23T03:31:10.121Z,15.90
2022-09-23T03:33:41.891Z,15.90
2022-09-23T03:36:14.370Z,15.88
2022-09-23T03:38:48.656Z,15.88
2022-09-23T03:41:26.813Z,15.82
2022-09-23T03:43:53.700Z,15.82
2022-09-23T03:46:20.134Z,15.85
2022-09-23T03:48:46.613Z,15.79
2022-09-23T03:51:22.486Z,15.79
2022-09-23T03:53:50.429Z,15.74
2022-09-23T03:56:16.977Z,15.77
2022-09-23T03:58:43.494Z,15.78
2022-09-23T04:01:09.970Z,15.59
2022-09-23T04:03:36.447Z,15.64
2022-09-23T04:06:02.894Z,15.69
2022-09-23T04:08:29.332Z,15.65
2022-09-23T04:11:00.356Z,15.66
2022-09-23T04:13:34.891Z,15.68
2022-09-23T04:16:01.647Z,15.68
2022-09-23T04:18:28.171Z,15.71
2022-09-23T04:20:59.024Z,15.67
2022-09-23T04:23:26.957Z,15.65
2022-09-23T04:25:53.812Z,15.69
2022-09-23T04:28:21.900Z,15.72
2022-09-23T04:30:49.009Z,15.71
2022-09-23T04:33:16.588Z,15.76
2022-09-23T04:35:43.258Z,15.80
2022-09-23T04:38:12.234Z,15.80
2022-09-23T04:40:39.032Z,15.87
2022-09-23T04:43:05.562Z,15.83
2022-09-23T04:45:32.049Z,15.85
2022-09-23T04:47:58.538Z,15.86
2022-09-23T04:50:26.164Z,15.88
2022-09-23T04:52:53.404Z,15.94
2022-09-23T04:55:20.388Z,15.91
2022-09-23T04:57:47.018Z,15.90
2022-09-23T05:00:14.251Z,15.92
2022-09-23T05:02:48.813Z,15.90
2022-09-23T05:05:16.768Z,15.88
2022-09-23T05:07:43.203Z,15.87
2022-09-23T05:10:09.754Z,15.86
2022-09-23T05:12:36.210Z,15.80
2022-09-23T05:15:02.852Z,15.82
2022-09-23T05:17:29.302Z,15.79
2022-09-23T05:19:55.765Z,15.81
2022-09-23T05:22:22.234Z,15.83
2022-09-23T05:24:48.698Z,15.88
2022-09-23T05:27:15.154Z,15.88
2022-09-23T05:29:41.612Z,15.82
2022-09-23T05:32:08.064Z,15.85
2022-09-23T05:34:34.524Z,15.93
2022-09-23T05:37:01.221Z,15.95
2022-09-23T05:39:27.664Z,15.94
2022-09-23T05:41:54.103Z,16.05
2022-09-23T05:44:20.825Z,16.08
2022-09-23T05:46:47.543Z,16.09
2022-09-23T05:49:14.033Z,16.13
2022-09-23T05:51:40.484Z,16.12
2022-09-23T05:54:07.164Z,16.09
2022-09-23T05:56:34.636Z,16.19
2022-09-23T05:59:02.351Z,16.13
2022-09-23T06:01:32.752Z,16.16
2022-09-23T06:04:00.466Z,16.21
2022-09-23T06:06:28.771Z,16.14
2022-09-23T06:08:55.301Z,16.26
2022-09-23T06:11:21.983Z,16.20
2022-09-23T06:13:48.416Z,16.36
2022-09-23T06:16:16.284Z,16.44
2022-09-23T06:18:45.159Z,16.54
2022-09-23T06:21:16.625Z,16.47
2022-09-23T06:23:44.653Z,16.51
2022-09-23T06:26:14.071Z,16.55
2022-09-23T06:28:42.025Z,16.69
2022-09-23T06:31:13.737Z,16.79
2022-09-23T06:33:42.301Z,16.80
2022-09-23T06:36:10.308Z,16.89
2022-09-23T06:38:41.811Z,16.88
2022-09-23T06:41:08.237Z,16.99
2022-09-23T06:43:34.711Z,17.04
2022-09-23T06:46:04.066Z,17.16
2022-09-23T06:48:32.369Z,17.17
2022-09-23T06:51:00.527Z,17.34
2022-09-23T06:53:26.976Z,17.40
2022-09-23T06:56:03.628Z,17.43
2022-09-23T06:58:31.747Z,17.46
2022-09-23T07:01:07.733Z,17.52
2022-09-23T07:03:35.508Z,17.24
2022-09-23T07:06:02.356Z,17.47
2022-09-23T07:08:30.551Z,17.50
2022-09-23T07:10:59.438Z,17.61
2022-09-23T07:13:27.192Z,17.84
2022-09-23T07:15:58.369Z,17.97
2022-09-23T07:18:26.573Z,18.14
2022-09-23T07:20:53.851Z,17.79
2022-09-23T07:23:20.725Z,17.99
2022-09-23T07:25:47.519Z,18.04
2022-09-23T07:28:13.997Z,18.35
2022-09-23T07:30:51.377Z,18.30
2022-09-23T07:33:30.499Z,18.43
2022-09-23T07:35:58.459Z,18.62
2022-09-23T07:38:25.020Z,18.69
2022-09-23T07:40:51.511Z,18.78
2022-09-23T07:43:17.992Z,18.87
2022-09-23T07:45:44.464Z,18.81
2022-09-23T07:48:10.930Z,18.76
2022-09-23T07:50:39.259Z,18.76
2022-09-23T07:53:05.695Z,18.96
2022-09-23T07:55:32.170Z,18.66
2022-09-23T07:58:00.038Z,18.84
2022-09-23T08:00:26.490Z,19.00
2022-09-23T08:02:53.295Z,19.16
2022-09-23T08:05:19.815Z,19.11
2022-09-23T08:07:46.242Z,19.15
2022-09-23T08:10:12.681Z,18.84
2022-09-23T08:12:39.190Z,18.84
2022-09-23T08:15:06.146Z,19.07
2022-09-23T08:17:32.604Z,19.10
2022-09-23T08:19:59.053Z,18.91
2022-09-23T08:22:25.531Z,19.28
2022-09-23T08:24:53.196Z,19.42
2022-09-23T08:27:20.988Z,19.36
2022-09-23T08:29:47.434Z,19.29
2022-09-23T08:32:13.867Z,19.51
2022-09-23T08:34:40.392Z,19.71
2022-09-23T08:37:10.391Z,19.73
2022-09-23T08:39:36.874Z,19.66
2022-09-23T08:42:19.529Z,19.50
2022-09-23T08:44:54.958Z,19.44
2022-09-23T08:47:32.085Z,19.69
2022-09-23T08:50:28.844Z,19.80
2022-09-23T08:52:59.736Z,19.92
2022-09-23T08:55:39.023Z,19.65
2022-09-23T08:58:33.049Z,19.60
2022-09-23T09:01:11.293Z,19.50
2022-09-23T09:04:00.948Z,19.74
2022-09-23T09:06:51.794Z,19.59
2022-09-23T09:09:25.737Z,19.42
2022-09-23T09:12:23.574Z,19.16
2022-09-23T09:15:07.427Z,19.35
2022-09-23T09:17:40.155Z,19.30
2022-09-23T09:20:15.777Z,19.19
2022-09-23T09:23:15.593Z,19.36
2022-09-23T09:25:49.386Z,19.60
2022-09-23T09:28:15.777Z,19.20
2022-09-23T09:30:48.324Z,19.39
2022-09-23T09:33:19.175Z,19.47
2022-09-23T09:36:01.475Z,19.53
2022-09-23T09:38:28.291Z,18.78
2022-09-23T09:41:01.905Z,19.39
2022-09-23T09:43:28.389Z,19.24
2022-09-23T09:46:32.690Z,19.58
2022-09-23T09:49:08.923Z,19.14
2022-09-23T09:51:35.535Z,19.42
2022-09-23T09:54:22.658Z,19.69
2022-09-23T09:56:49.398Z,19.85
2022-09-23T09:59:24.011Z,19.59
2022-09-23T10:02:21.585Z,19.56
2022-09-23T10:04:57.569Z,19.52
2022-09-23T10:07:28.172Z,19.66
2022-09-23T10:09:58.296Z,19.90
2022-09-23T10:12:46.668Z,20.11
2022-09-23T10:15:44.926Z,19.92
2022-09-23T10:18:20.095Z,20.15
2022-09-23T10:20:48.040Z,20.23
2022-09-23T10:23:28.432Z,20.00
2022-09-23T10:26:02.057Z,20.05
2022-09-23T10:28:46.864Z,19.78
2022-09-23T10:31:24.669Z,20.10
2022-09-23T10:34:03.639Z,19.82
2022-09-23T10:36:33.261Z,19.92
2022-09-23T10:39:05.033Z,19.89
2022-09-23T10:41:42.129Z,19.79
2022-09-23T10:44:20.108Z,19.78
2022-09-23T10:47:29.779Z,19.96
2022-09-23T10:50:29.475Z,19.92
2022-09-23T10:53:06.636Z,20.04
2022-09-23T10:56:01.581Z,20.03
2022-09-23T10:58:33.592Z,20.11
2022-09-23T11:01:38.795Z,20.07
2022-09-23T11:04:34.322Z,20.06
2022-09-23T11:07:27.260Z,20.22
2022-09-23T11:10:35.284Z,20.56
2022-09-23T11:13:05.494Z,20.67
2022-09-23T11:15:44.523Z,20.40
2022-09-23T11:18:28.622Z,20.53
2022-09-23T11:21:31.283Z,20.74
2022-09-23T11:24:03.704Z,20.96
2022-09-23T11:26:55.033Z,20.45
2022-09-23T11:29:36.034Z,21.09
2022-09-23T11:32:05.420Z,20.83
2022-09-23T11:34:59.280Z,20.76
2022-09-23T11:37:37.083Z,20.89
2022-09-23T11:40:35.127Z,20.77
2022-09-23T11:43:09.792Z,21.00
2022-09-23T11:45:58.744Z,21.30
2022-09-23T11:48:35.851Z,21.52
2022-09-23T11:51:14.731Z,21.53
2022-09-23T11:53:59.671Z,21.40
2022-09-23T11:56:41.627Z,21.31
2022-09-23T11:59:39.214Z,21.53
2022-09-23T12:02:31.353Z,21.62
2022-09-23T12:05:16.179Z,21.19
2022-09-23T12:07:52.221Z,21.57
2022-09-23T12:10:20.050Z,21.62
2022-09-23T12:12:52.766Z,21.66
2022-09-23T12:15:22.291Z,21.41
2022-09-23T12:18:07.808Z,20.84
2022-09-23T12:20:49.091Z,20.87
2022-09-23T12:23:21.597Z,21.31
2022-09-23T12:25:57.409Z,21.38
2022-09-23T12:28:38.494Z,22.03
2022-09-23T12:31:12.627Z,22.26
2022-09-23T12:33:40.024Z,22.26
2022-09-23T12:36:10.362Z,22.30
2022-09-23T12:38:49.294Z,22.55
2022-09-23T12:41:38.481Z,22.62
2022-09-23T12:44:07.670Z,23.05
2022-09-23T12:46:34.230Z,22.59
2022-09-23T12:49:03.317Z,22.82
2022-09-23T12:51:35.042Z,23.21
2022-09-23T12:54:04.180Z,23.15
2022-09-23T12:56:36.721Z,23.05
2022-09-23T12:59:09.100Z,23.18
2022-09-23T13:01:38.373Z,23.33
2022-09-23T13:04:05.599Z,23.70
2022-09-23T13:06:40.874Z,23.89
2022-09-23T13:09:26.319Z,24.18
2022-09-23T13:11:59.945Z,24.29
2022-09-23T13:14:29.860Z,24.27
2022-09-23T13:16:57.957Z,24.18
2022-09-23T13:19:27.048Z,24.22
2022-09-23T13:21:53.447Z,24.10
2022-09-23T13:24:22.795Z,23.88
2022-09-23T13:27:03.331Z,23.66
2022-09-23T13:29:45.117Z,23.69
2022-09-23T13:32:14.891Z,23.71
2022-09-23T13:34:44.223Z,23.64
2022-09-23T13:37:24.296Z,23.33
2022-09-23T13:39:51.209Z,23.67
2022-09-23T13:42:28.067Z,23.92
2022-09-23T13:44:57.643Z,24.07
2022-09-23T13:47:29.383Z,24.61
2022-09-23T13:49:57.276Z,24.67
2022-09-23T13:52:31.672Z,24.92
2022-09-23T13:54:58.374Z,24.71
2022-09-23T13:57:29.083Z,24.62
2022-09-23T14:00:00.820Z,24.60
2022-09-23T14:02:27.796Z,24.72
2022-09-23T14:04:57.991Z,24.39
2022-09-23T14:07:25.740Z,24.00
2022-09-23T14:09:55.511Z,24.15
2022-09-23T14:12:22.718Z,24.20
2022-09-23T14:14:52.766Z,24.18
2022-09-23T14:17:22.418Z,24.35
2022-09-23T14:19:51.572Z,24.22
2022-09-23T14:22:27.409Z,23.95
2022-09-23T14:24:56.235Z,23.59
2022-09-23T14:27:30.507Z,23.99
2022-09-23T14:29:58.649Z,24.07
2022-09-23T14:32:27.138Z,24.25
2022-09-23T14:35:16.089Z,24.44
2022-09-23T14:37:46.379Z,24.48
2022-09-23T14:40:17.872Z,24.65
2022-09-23T14:43:07.911Z,24.76
2022-09-23T14:45:38.540Z,25.06
2022-09-23T14:48:35.043Z,24.85
2022-09-23T14:51:06.044Z,24.22
2022-09-23T14:53:36.679Z,24.05
2022-09-23T14:56:05.877Z,24.26
2022-09-23T14:58:51.957Z,24.12
2022-09-23T15:01:30.824Z,24.17
2022-09-23T15:04:21.615Z,24.06
2022-09-23T15:06:51.585Z,23.75
2022-09-23T15:09:31.066Z,23.95
2022-09-23T15:12:01.819Z,24.20
2022-09-23T15:14:39.469Z,23.98
2022-09-23T15:17:35.797Z,24.25
2022-09-23T15:20:06.616Z,24.13
2022-09-23T15:22:43.939Z,24.39
2022-09-23T15:25:34.772Z,24.40
2022-09-23T15:28:10.274Z,24.21
2022-09-23T15:30:37.912Z,23.98
2022-09-23T15:33:05.191Z,23.97
2022-09-23T15:35:32.323Z,23.16
2022-09-23T15:38:01.424Z,23.47
2022-09-23T15:40:34.198Z,23.49
2022-09-23T15:43:10.269Z,23.10
2022-09-23T15:45:43.006Z,23.06
2022-09-23T15:48:24.108Z,22.89
2022-09-23T15:50:51.497Z,22.81
2022-09-23T15:53:27.281Z,23.24
2022-09-23T15:55:53.937Z,23.25
2022-09-23T15:58:22.273Z,23.39
2022-09-23T16:00:55.680Z,23.72
2022-09-23T16:03:24.280Z,23.71
2022-09-23T16:05:51.439Z,23.88
2022-09-23T16:08:17.875Z,24.05
2022-09-23T16:10:44.332Z,24.23
2022-09-23T16:13:13.069Z,24.17
2022-09-23T16:15:40.441Z,24.07
2022-09-23T16:18:09.368Z,24.29
2022-09-23T16:20:38.820Z,24.07
2022-09-23T16:23:21.884Z,24.14
2022-09-23T16:25:48.359Z,24.21
2022-09-23T16:28:14.797Z,24.30
2022-09-23T16:30:41.241Z,24.35
2022-09-23T16:33:07.690Z,24.49
2022-09-23T16:35:34.207Z,24.29
2022-09-23T16:38:00.635Z,24.18
2022-09-23T16:40:27.254Z,23.85
2022-09-23T16:42:53.760Z,23.76
2022-09-23T16:45:21.845Z,23.87
2022-09-23T16:47:50.520Z,23.97
2022-09-23T16:50:20.146Z,24.01
2022-09-23T16:52:46.647Z,23.79
2022-09-23T16:55:14.677Z,23.85
2022-09-23T16:57:41.611Z,23.75
2022-09-23T17:00:13.877Z,23.62
2022-09-23T17:02:40.405Z,23.60
2022-09-23T17:05:07.197Z,23.40
2022-09-23T17:07:33.752Z,23.27
2022-09-23T17:10:00.241Z,23.20
2022-09-23T17:12:32.726Z,22.84
2022-09-23T17:14:59.301Z,22.75
2022-09-23T17:17:25.773Z,22.66
2022-09-23T17:19:52.206Z,22.63
2022-09-23T17:22:18.707Z,22.34
2022-09-23T17:24:45.188Z,22.70
2022-09-23T17:27:11.655Z,22.76
2022-09-23T17:29:38.111Z,22.62
2022-09-23T17:32:04.557Z,22.43
2022-09-23T17:34:31.001Z,22.62
2022-09-23T17:36:57.441Z,22.87
2022-09-23T17:39:23.880Z,22.82
2022-09-23T17:41:50.322Z,22.89
2022-09-23T17:44:16.879Z,23.04
2022-09-23T17:46:43.306Z,22.94
2022-09-23T17:49:09.830Z,22.90
2022-09-23T17:51:36.465Z,22.59
2022-09-23T17:54:02.915Z,22.93
2022-09-23T17:56:29.374Z,22.73
2022-09-23T17:59:00.284Z,22.90
2022-09-23T18:01:27.192Z,22.82
2022-09-23T18:03:55.577Z,22.64
2022-09-23T18:06:24.958Z,22.52
2022-09-23T18:08:51.993Z,22.41
2022-09-23T18:11:24.478Z,22.43
2022-09-23T18:13:53.986Z,22.73
2022-09-23T18:16:23.318Z,22.79
2022-09-23T18:18:51.187Z,22.83
2022-09-23T18:21:17.680Z,22.84
2022-09-23T18:23:44.128Z,22.91
2022-09-23T18:26:20.766Z,22.93
2022-09-23T18:28:48.497Z,22.90
2022-09-23T18:31:16.088Z,22.91
2022-09-23T18:33:42.595Z,22.82
2022-09-23T18:36:09.304Z,22.92
2022-09-23T18:38:35.763Z,22.62
2022-09-23T18:41:02.324Z,22.83
2022-09-23T18:43:37.288Z,22.85
2022-09-23T18:46:10.787Z,22.74
2022-09-23T18:48:37.369Z,22.83
2022-09-23T18:51:06.290Z,22.66
2022-09-23T18:53:32.753Z,22.68
2022-09-23T18:58:25.631Z,22.54
2022-09-23T19:00:52.169Z,22.60
2022-09-23T19:03:18.704Z,22.57
2022-09-23T19:05:45.178Z,22.56
2022-09-23T19:08:11.626Z,22.51
2022-09-23T19:10:38.075Z,22.44
2022-09-23T19:13:04.518Z,22.43
2022-09-23T19:15:31.063Z,22.37
2022-09-23T19:17:57.514Z,22.34
2022-09-23T19:20:23.948Z,21.97
2022-09-23T19:22:50.391Z,22.05
2022-09-23T19:25:16.929Z,22.07
2022-09-23T19:27:43.366Z,22.06
2022-09-23T19:30:10.279Z,21.70
2022-09-23T19:32:36.718Z,21.73
2022-09-23T19:35:03.188Z,21.55
2022-09-23T19:37:29.640Z,21.49
2022-09-23T19:39:56.102Z,21.55
2022-09-23T19:42:22.568Z,21.65
2022-09-23T19:44:49.010Z,21.66
2022-09-23T19:47:15.644Z,21.78
2022-09-23T19:49:42.166Z,21.83
2022-09-23T19:52:08.635Z,21.84
2022-09-23T19:54:35.152Z,21.87
2022-09-23T19:57:01.582Z,21.86
2022-09-23T19:59:28.042Z,21.85
2022-09-23T20:01:54.565Z,21.80
2022-09-23T20:04:21.288Z,21.56
2022-09-23T20:06:47.771Z,21.86
2022-09-23T20:09:14.207Z,21.82
2022-09-23T20:11:40.738Z,21.60
2022-09-23T20:14:07.229Z,21.64
2022-09-23T20:16:35.739Z,21.87
2022-09-23T20:19:03.062Z,21.75
2022-09-23T20:21:30.398Z,21.92
2022-09-23T20:23:57.467Z,21.75
2022-09-23T20:26:24.288Z,21.89
2022-09-23T20:28:51.063Z,21.84
2022-09-23T20:31:19.420Z,21.79
2022-09-23T20:33:50.371Z,21.80
2022-09-23T20:36:16.860Z,21.54
2022-09-23T20:38:43.328Z,21.73
2022-09-23T20:41:09.891Z,21.80
2022-09-23T20:43:36.355Z,21.84
2022-09-23T20:46:04.076Z,21.90
2022-09-23T20:48:31.327Z,21.90
2022-09-23T20:51:02.190Z,21.87
2022-09-23T20:53:28.669Z,21.89
2022-09-23T20:55:57.095Z,21.85
2022-09-23T20:58:31.280Z,21.81
2022-09-23T21:01:02.061Z,21.81
2022-09-23T21:03:33.230Z,21.21
2022-09-23T21:06:01.554Z,21.19
2022-09-23T21:08:28.028Z,21.05
2022-09-23T21:10:59.418Z,21.23
2022-09-23T21:13:25.862Z,21.24
2022-09-23T21:15:52.380Z,20.83
2022-09-23T21:18:22.388Z,21.14
2022-09-23T21:20:56.978Z,21.22
2022-09-23T21:23:24.928Z,21.31
2022-09-23T21:25:51.726Z,21.29
2022-09-23T21:28:18.265Z,20.95
2022-09-23T21:30:48.517Z,21.22
2022-09-23T21:33:17.601Z,21.27
2022-09-23T21:35:44.378Z,21.21
2022-09-23T21:38:10.841Z,21.25
2022-09-23T21:40:37.333Z,21.09
2022-09-23T21:43:03.803Z,21.17
2022-09-23T21:45:30.233Z,20.84
2022-09-23T21:47:56.685Z,20.70
2022-09-23T21:50:23.116Z,20.77
2022-09-23T21:52:49.554Z,20.54
2022-09-23T21:55:16.082Z,20.86
2022-09-23T21:57:42.532Z,20.94
2022-09-23T22:00:09.480Z,21.17
2022-09-23T22:02:35.923Z,21.22
2022-09-23T22:05:02.442Z,21.03
2022-09-23T22:07:28.862Z,20.96
2022-09-23T22:09:55.326Z,20.83
2022-09-23T22:12:21.768Z,21.18
2022-09-23T22:14:48.202Z,21.24
2022-09-23T22:17:14.654Z,21.38
2022-09-23T22:19:45.944Z,21.39
2022-09-23T22:22:16.180Z,21.40
2022-09-23T22:24:44.391Z,21.52
2022-09-23T22:27:13.040Z,21.46
2022-09-23T22:29:39.662Z,21.12
2022-09-23T22:32:11.205Z,21.18
2022-09-23T22:34:49.495Z,20.98
2022-09-23T22:37:19.804Z,21.07
2022-09-23T22:39:46.988Z,20.72
2022-09-23T22:42:13.436Z,20.31
2022-09-23T22:44:39.903Z,20.78
2022-09-23T22:47:06.770Z,20.93
2022-09-23T22:49:33.318Z,20.70
2022-09-23T22:51:59.966Z,20.54
2022-09-23T22:54:33.724Z,20.13
2022-09-23T22:57:01.352Z,20.14
2022-09-23T22:59:27.908Z,20.08
2022-09-23T23:01:54.361Z,19.85
2022-09-23T23:04:20.840Z,20.14
2022-09-23T23:06:47.298Z,20.38
2022-09-23T23:09:16.530Z,20.15
2022-09-23T23:11:43.499Z,20.36
2022-09-23T23:14:10.862Z,20.52
2022-09-23T23:16:37.855Z,19.66
2022-09-23T23:19:13.013Z,20.17
2022-09-23T23:21:41.194Z,20.43
2022-09-23T23:24:15.172Z,20.08
2022-09-23T23:26:41.695Z,19.66
2022-09-23T23:29:10.995Z,19.40
2022-09-23T23:31:37.904Z,19.44
2022-09-23T23:34:04.998Z,19.32
2022-09-23T23:36:31.447Z,19.51
2022-09-23T23:38:58.268Z,19.32
2022-09-23T23:41:24.800Z,19.45
2022-09-23T23:43:59.981Z,19.47
2022-09-23T23:46:28.481Z,19.41
2022-09-23T23:48:56.453Z,19.32
2022-09-23T23:51:24.261Z,18.93
2022-09-23T23:53:50.720Z,19.55
2022-09-23T23:56:19.960Z,19.46
2022-09-23T23:58:46.511Z,19.88
